Terminal Aerodrome Forecast
Issued by NWS Grand Rapids, MI

Home | Current Version | Previous Version | Text Only | Print | Product List | Glossary On
Versions: 1 2 3 4 5 6 7 8 9 10 11 12 13 14 15 16 17
000
FTUS43 KGRR 241100
TAFGRR
TAF
KGRR 241125Z 2412/2512 07006KT P6SM VCSH BKN080 OVC100
     FM241600 13013G23KT P6SM BKN050
     FM250000 11012KT P6SM SCT050 OVC100
     FM251000 10006KT P6SM -RA OVC035=

USA.gov is the U.S. government's official web portal to all federal, state and local government web resources and services.